Time;durP1;ratioP1;P1;durP2;ratioP2;P2;SDS_P1;SDS_P2;PMS_P1;PMS_P2;Temp;Humidity;BMP_temperature;BMP_pressure;BME280_temperature;BME280_humidity;BME280_pressure;Samples;Min_cycle;Max_cycle;Signal;HPM_P1;HPM_P2
2023/10/22 00:02:22;;;;;;;13.55;6.70;;;;;;;4.28;74.17;100190.75;5050506;28;20040;-47
2023/10/22 00:04:48;;;;;;;15.18;6.40;;;;;;;4.31;73.96;100193.31;5066988;28;20063;-45
2023/10/22 00:07:14;;;;;;;15.73;6.53;;;;;;;4.35;74.15;100189.00;5045053;28;20040;-45
2023/10/22 00:09:41;;;;;;;13.90;7.10;;;;;;;4.41;73.83;100192.44;5068556;28;20106;-46
2023/10/22 00:12:07;;;;;;;12.95;6.68;;;;;;;4.29;73.91;100146.13;5038251;28;20049;-46
2023/10/22 00:14:33;;;;;;;31.88;7.13;;;;;;;4.33;73.89;100134.97;5057114;28;20463;-46
2023/10/22 00:17:00;;;;;;;18.52;6.85;;;;;;;4.50;73.55;100163.25;5065467;28;20422;-45
2023/10/22 00:19:45;;;;;;;11.45;5.90;;;;;;;4.51;73.58;100157.22;5069247;28;20040;-46
2023/10/22 00:22:13;;;;;;;11.68;5.80;;;;;;;4.52;73.82;100164.97;5068302;28;20040;-45
2023/10/22 00:24:41;;;;;;;11.25;5.80;;;;;;;4.34;73.61;100135.84;5031376;28;20124;-44
2023/10/22 00:27:08;;;;;;;13.85;5.68;;;;;;;4.52;73.62;100170.09;5066378;28;20508;-47
2023/10/22 00:29:34;;;;;;;16.50;6.93;;;;;;;4.51;73.55;100177.81;5066103;28;20076;-44
2023/10/22 00:32:00;;;;;;;13.40;6.82;;;;;;;4.51;73.82;100182.97;5068018;28;20036;-44
2023/10/22 00:34:26;;;;;;;17.83;6.95;;;;;;;4.37;73.99;100154.69;5054681;28;20038;-45
2023/10/22 00:36:53;;;;;;;19.15;7.28;;;;;;;4.55;74.00;100179.56;5067368;28;20135;-45
2023/10/22 00:39:19;;;;;;;14.73;6.90;;;;;;;4.55;73.83;100180.38;5066478;28;20040;-47
2023/10/22 00:41:45;;;;;;;13.57;6.10;;;;;;;4.50;73.71;100178.72;5067932;28;20067;-44
2023/10/22 00:44:11;;;;;;;15.55;5.93;;;;;;;4.58;73.82;100202.72;5083364;28;20063;-45
2023/10/22 00:46:37;;;;;;;17.17;7.25;;;;;;;4.58;73.78;100206.16;5065818;28;20063;-48
2023/10/22 00:49:03;;;;;;;15.07;5.85;;;;;;;4.65;73.57;100201.84;5050297;28;20041;-48
2023/10/22 00:51:29;;;;;;;12.00;6.10;;;;;;;4.37;73.89;100156.41;5067422;28;20043;-47
2023/10/22 00:53:58;;;;;;;15.77;6.60;;;;;;;4.63;73.40;100188.97;5055847;28;20059;-45
2023/10/22 00:56:26;;;;;;;16.00;7.45;;;;;;;4.53;73.46;100168.38;5050359;28;20040;-46
2023/10/22 00:58:52;;;;;;;13.50;6.05;;;;;;;4.72;73.34;100171.75;5065629;28;20751;-44
2023/10/22 01:01:18;;;;;;;14.75;6.82;;;;;;;4.72;73.26;100167.47;5067722;28;20040;-44
2023/10/22 01:03:44;;;;;;;14.52;6.20;;;;;;;4.72;73.36;100157.16;5043860;28;20131;-43
2023/10/22 01:06:10;;;;;;;19.10;6.32;;;;;;;4.78;73.21;100164.03;5065962;28;20484;-46
2023/10/22 01:08:38;;;;;;;17.02;6.65;;;;;;;4.73;73.37;100163.19;5066014;28;20044;-46
2023/10/22 01:11:05;;;;;;;14.80;6.82;;;;;;;4.77;73.30;100160.59;5065414;28;20067;-45
2023/10/22 01:13:30;;;;;;;15.52;7.30;;;;;;;4.80;73.17;100163.16;5067921;28;20084;-44
2023/10/22 01:15:56;;;;;;;14.23;7.68;;;;;;;4.79;72.73;100169.19;5065827;28;20075;-45
2023/10/22 01:18:24;;;;;;;18.15;7.13;;;;;;;4.78;72.66;100172.59;5050355;28;20045;-44
2023/10/22 01:20:50;;;;;;;18.75;7.03;;;;;;;4.81;71.90;100164.03;5065521;28;20047;-44
2023/10/22 01:23:16;;;;;;;17.27;6.65;;;;;;;4.86;71.95;100157.16;5063770;28;20442;-48
2023/10/22 01:25:42;;;;;;;17.70;6.97;;;;;;;4.82;72.20;100158.84;5054248;28;20052;-45
2023/10/22 01:28:08;;;;;;;12.95;6.28;;;;;;;4.82;72.28;100179.47;5062907;28;20040;-48
2023/10/22 01:30:34;;;;;;;17.25;6.70;;;;;;;4.84;72.03;100174.31;5064578;28;20028;-46
2023/10/22 01:33:01;;;;;;;17.02;7.20;;;;;;;4.86;72.19;100185.47;5044011;28;20052;-45
2023/10/22 01:35:27;;;;;;;13.25;6.60;;;;;;;4.90;72.89;100206.06;5063110;28;20117;-43
2023/10/22 01:37:53;;;;;;;17.55;6.85;;;;;;;4.89;72.61;100214.66;5065780;28;20118;-45
2023/10/22 01:40:19;;;;;;;17.05;6.95;;;;;;;4.93;72.07;100206.03;5041616;28;20043;-45
2023/10/22 01:42:45;;;;;;;14.30;6.80;;;;;;;4.95;72.26;100175.13;5030911;28;20596;-46
2023/10/22 01:45:12;;;;;;;14.48;7.15;;;;;;;4.90;72.05;100149.38;5065696;28;20047;-44
2023/10/22 01:47:38;;;;;;;14.02;6.60;;;;;;;5.05;71.90;100166.50;5066348;28;20790;-46
2023/10/22 01:50:05;;;;;;;19.48;6.57;;;;;;;5.09;71.60;100153.59;5064912;28;20041;-48
2023/10/22 01:52:31;;;;;;;16.38;7.13;;;;;;;5.12;72.19;100152.72;5051129;28;20548;-47
2023/10/22 01:54:58;;;;;;;17.40;7.07;;;;;;;4.87;72.01;100078.97;5048650;28;20072;-44
2023/10/22 01:57:23;;;;;;;21.73;6.90;;;;;;;5.02;71.49;100100.34;5065604;28;20044;-47
2023/10/22 01:59:50;;;;;;;15.60;7.20;;;;;;;5.15;71.15;100123.50;5031542;28;20140;-46
2023/10/22 02:02:17;;;;;;;15.23;6.20;;;;;;;5.16;71.18;100122.63;5065186;28;20401;-47
2023/10/22 02:04:44;;;;;;;16.50;6.88;;;;;;;5.15;71.75;100131.22;5064816;28;20091;-44
2023/10/22 02:07:11;;;;;;;14.57;6.55;;;;;;;5.13;71.53;100108.88;5065715;28;20072;-45
2023/10/22 02:09:37;;;;;;;21.02;7.85;;;;;;;4.95;71.18;100065.22;5065862;28;20040;-46
2023/10/22 02:12:04;;;;;;;16.92;6.38;;;;;;;5.18;71.29;100080.53;5081474;28;20427;-50
2023/10/22 02:14:30;;;;;;;16.70;7.68;;;;;;;5.08;71.23;100086.59;5065381;28;20135;-48
2023/10/22 02:16:57;;;;;;;19.52;7.57;;;;;;;5.03;71.50;100093.50;5066544;28;20137;-45
2023/10/22 02:19:23;;;;;;;16.92;7.40;;;;;;;4.99;71.47;100077.19;5061706;28;20059;-44
2023/10/22 02:21:49;;;;;;;12.60;6.97;;;;;;;5.01;71.66;100078.06;5049685;28;20040;-47
2023/10/22 02:24:15;;;;;;;15.60;6.43;;;;;;;4.69;71.45;100051.59;5065169;28;20086;-46
2023/10/22 02:26:41;;;;;;;13.43;6.65;;;;;;;4.61;71.12;100043.03;5066522;28;20051;-45
2023/10/22 02:29:08;;;;;;;20.25;7.18;;;;;;;4.86;71.04;100067.84;5034813;28;20036;-46
2023/10/22 02:31:34;;;;;;;16.95;6.43;;;;;;;4.93;71.05;100068.63;5045551;28;20049;-45
2023/10/22 02:34:01;;;;;;;10.52;5.20;;;;;;;5.02;71.19;100084.06;5049176;28;20547;-45
2023/10/22 02:36:28;;;;;;;8.98;4.20;;;;;;;4.97;70.43;100078.09;5057567;28;20540;-46
2023/10/22 02:38:54;;;;;;;10.70;4.20;;;;;;;4.87;70.23;100084.97;5068003;28;20085;-45
2023/10/22 02:41:19;;;;;;;8.30;3.72;;;;;;;4.62;69.62;100066.22;5068782;28;20036;-45
2023/10/22 02:43:45;;;;;;;6.05;2.92;;;;;;;4.81;69.31;100079.03;5069804;28;20032;-45
2023/10/22 02:46:11;;;;;;;7.63;3.15;;;;;;;4.79;68.89;100084.19;5068706;28;20040;-47
2023/10/22 02:48:37;;;;;;;7.05;2.95;;;;;;;4.76;68.44;100084.19;5052406;28;20124;-46
2023/10/22 02:51:04;;;;;;;7.38;2.65;;;;;;;4.64;68.22;100087.69;5069504;28;20561;-44
2023/10/22 02:53:30;;;;;;;5.20;2.22;;;;;;;4.39;68.16;100051.75;5068813;28;20062;-46
2023/10/22 02:56:03;;;;;;;4.60;2.20;;;;;;;4.54;67.65;100092.88;5070305;28;20143;-45
2023/10/22 02:58:30;;;;;;;6.97;2.40;;;;;;;4.38;67.85;100057.75;5051376;28;20047;-44
2023/10/22 03:01:03;;;;;;;4.63;2.35;;;;;;;4.33;67.98;100039.75;5084631;28;20040;-45
2023/10/22 03:03:30;;;;;;;8.77;2.58;;;;;;;4.49;68.04;100069.72;5069578;28;20046;-48
2023/10/22 03:05:59;;;;;;;3.05;2.00;;;;;;;4.42;67.61;100068.00;5068141;28;20496;-48
2023/10/22 03:08:26;;;;;;;5.03;2.20;;;;;;;4.43;68.00;100067.16;5053457;28;20090;-45
2023/10/22 03:10:51;;;;;;;5.03;2.13;;;;;;;4.43;67.76;100085.19;5069679;28;20040;-44
2023/10/22 03:13:17;;;;;;;5.82;2.22;;;;;;;4.39;67.78;100092.91;5067000;28;20727;-48
2023/10/22 03:15:43;;;;;;;5.35;2.40;;;;;;;4.34;68.08;100081.78;5067837;28;20094;-44
2023/10/22 03:18:09;;;;;;;8.27;2.42;;;;;;;4.33;67.74;100068.06;5065147;28;20040;-46
2023/10/22 03:20:35;;;;;;;4.97;2.42;;;;;;;4.33;67.46;100073.19;5067610;28;20055;-45
2023/10/22 03:23:03;;;;;;;4.93;2.30;;;;;;;4.36;67.74;100060.31;5067533;28;20040;-46
2023/10/22 03:25:29;;;;;;;5.78;2.10;;;;;;;4.36;67.54;100060.31;5038189;28;20090;-45
2023/10/22 03:27:55;;;;;;;6.35;2.28;;;;;;;4.24;66.92;100060.34;5068440;28;20043;-43
2023/10/22 03:30:22;;;;;;;5.25;2.20;;;;;;;4.23;67.31;100049.22;5068024;28;20056;-45
2023/10/22 03:32:48;;;;;;;5.00;2.80;;;;;;;4.22;67.20;100050.06;5067095;28;20511;-44
2023/10/22 03:35:16;;;;;;;7.45;2.63;;;;;;;4.11;67.28;100036.38;5069439;28;20048;-47
2023/10/22 03:37:42;;;;;;;5.10;2.47;;;;;;;4.19;67.23;100018.31;5066387;28;20574;-45
2023/10/22 03:40:10;;;;;;;7.72;3.78;;;;;;;4.34;67.29;100036.31;5067914;28;20519;-45
2023/10/22 03:42:36;;;;;;;4.53;2.33;;;;;;;4.01;66.94;99979.81;5067395;28;20507;-45
2023/10/22 03:45:02;;;;;;;6.03;2.85;;;;;;;4.20;67.52;100010.59;5046568;28;20040;-46
2023/10/22 03:47:30;;;;;;;4.93;2.95;;;;;;;4.32;67.20;100032.00;5048178;28;20048;-46
2023/10/22 03:49:57;;;;;;;5.13;2.55;;;;;;;4.13;67.27;99992.63;5084915;28;20055;-47
2023/10/22 03:52:23;;;;;;;7.32;2.33;;;;;;;4.24;67.23;99977.97;5067073;28;20044;-45
2023/10/22 03:54:49;;;;;;;7.70;2.85;;;;;;;4.66;67.46;100036.16;5067681;28;20045;-46
2023/10/22 03:57:15;;;;;;;5.07;2.60;;;;;;;4.67;66.79;100027.56;5068829;28;20040;-44
2023/10/22 03:59:41;;;;;;;7.97;3.70;;;;;;;4.58;66.82;100005.31;5067621;28;20217;-46
2023/10/22 04:02:06;;;;;;;6.47;3.10;;;;;;;4.79;66.81;100037.81;5066083;28;20032;-45
2023/10/22 04:04:32;;;;;;;7.80;2.83;;;;;;;4.77;66.77;100008.63;5068180;28;20051;-49
2023/10/22 04:06:58;;;;;;;10.18;3.20;;;;;;;4.91;67.10;100024.88;5066214;28;20068;-45
2023/10/22 04:09:24;;;;;;;9.60;2.95;;;;;;;4.68;66.61;99959.75;5050446;28;20090;-48
2023/10/22 04:11:50;;;;;;;7.55;3.30;;;;;;;5.02;66.06;100024.81;5050845;28;20047;-46
2023/10/22 04:14:16;;;;;;;8.00;3.05;;;;;;;4.94;65.99;100044.59;5041585;28;20133;-45
2023/10/22 04:16:42;;;;;;;10.02;3.47;;;;;;;4.84;66.16;100030.91;5067015;28;20056;-46
2023/10/22 04:19:08;;;;;;;8.07;3.10;;;;;;;4.70;66.03;99999.25;5067304;28;20079;-48
2023/10/22 04:21:34;;;;;;;6.47;3.00;;;;;;;4.69;65.87;100006.09;5066442;28;20044;-44
2023/10/22 04:24:00;;;;;;;7.90;3.00;;;;;;;4.73;65.82;100009.50;5067382;28;20048;-47
2023/10/22 04:26:27;;;;;;;8.10;3.10;;;;;;;4.89;66.00;100038.59;5051097;28;20032;-44
2023/10/22 04:28:53;;;;;;;7.63;2.85;;;;;;;4.90;65.72;100066.09;5066954;28;20093;-46
2023/10/22 04:31:18;;;;;;;6.10;2.97;;;;;;;4.86;65.96;100054.09;5067059;28;20032;-48
2023/10/22 04:33:44;;;;;;;6.97;3.15;;;;;;;4.72;65.81;100023.25;5067653;28;20112;-43
2023/10/22 04:36:17;;;;;;;5.20;2.85;;;;;;;5.02;65.40;100055.72;5066866;28;20489;-45
2023/10/22 04:38:43;;;;;;;4.88;2.70;;;;;;;5.06;65.35;100060.84;5065920;28;20044;-47
2023/10/22 04:41:12;;;;;;;6.28;2.90;;;;;;;4.98;65.04;100047.13;5066705;28;20469;-46
2023/10/22 04:43:38;;;;;;;4.53;2.70;;;;;;;4.78;65.25;100024.94;5032146;28;20055;-46
2023/10/22 04:46:05;;;;;;;6.68;2.80;;;;;;;5.05;64.91;100081.47;5066772;28;20090;-44
2023/10/22 04:48:31;;;;;;;4.50;3.05;;;;;;;5.00;65.64;100070.31;5051391;28;20093;-45
2023/10/22 04:51:00;;;;;;;6.00;2.90;;;;;;;4.79;65.60;100035.25;5049960;28;20043;-45
2023/10/22 04:53:26;;;;;;;5.23;2.77;;;;;;;4.86;65.73;100077.28;5047933;28;20627;-44
2023/10/22 04:55:57;;;;;;;7.72;3.05;;;;;;;4.80;65.94;100065.28;5068115;28;20044;-46
2023/10/22 04:58:23;;;;;;;6.85;2.53;;;;;;;4.77;65.90;100073.00;5056492;28;20040;-45
2023/10/22 05:00:49;;;;;;;5.70;3.40;;;;;;;4.62;65.92;100050.75;5061575;28;20101;-46
2023/10/22 05:03:16;;;;;;;7.07;3.50;;;;;;;4.81;65.50;100074.75;5048215;28;20068;-48
2023/10/22 05:05:42;;;;;;;6.38;3.38;;;;;;;4.70;65.72;100081.66;5067511;28;20789;-44
2023/10/22 05:08:09;;;;;;;5.20;3.10;;;;;;;4.51;66.16;100073.13;5049446;28;20082;-45
2023/10/22 05:10:39;;;;;;;7.47;3.05;;;;;;;4.59;66.27;100076.53;5064911;28;20044;-45
2023/10/22 05:13:05;;;;;;;6.15;3.08;;;;;;;4.58;66.35;100063.66;5049910;28;20047;-46
2023/10/22 05:15:31;;;;;;;5.90;3.35;;;;;;;4.58;66.42;100056.81;5064792;28;20138;-47
2023/10/22 05:17:57;;;;;;;5.45;2.75;;;;;;;4.62;66.17;100062.78;5068003;28;20508;-46
2023/10/22 05:20:28;;;;;;;6.10;2.80;;;;;;;4.57;66.25;100065.38;5050240;28;20052;-46
2023/10/22 05:22:53;;;;;;;8.68;2.65;;;;;;;4.37;66.20;100027.72;5067064;28;20032;-46
2023/10/22 05:25:22;;;;;;;6.25;3.28;;;;;;;4.52;66.44;100058.53;5066287;28;20041;-47
2023/10/22 05:27:49;;;;;;;6.35;2.72;;;;;;;4.46;66.57;100062.00;5078222;28;20515;-48
2023/10/22 05:30:15;;;;;;;5.72;2.60;;;;;;;4.49;66.35;100066.28;5049389;28;20089;-46
2023/10/22 05:32:41;;;;;;;5.95;3.05;;;;;;;4.45;66.67;100080.88;5065041;28;20056;-46
2023/10/22 05:35:08;;;;;;;5.50;2.50;;;;;;;4.17;66.59;100040.66;5065422;28;20210;-43
2023/10/22 05:37:34;;;;;;;4.82;2.40;;;;;;;4.31;66.92;100068.91;5065408;28;20580;-46
2023/10/22 05:40:00;;;;;;;5.97;2.83;;;;;;;4.32;66.89;100086.06;5065719;28;20127;-47
2023/10/22 05:42:26;;;;;;;5.65;2.30;;;;;;;4.38;66.89;100101.50;5065643;28;20043;-45
2023/10/22 05:44:51;;;;;;;5.03;2.80;;;;;;;4.36;66.86;100121.22;5062504;28;20049;-45
2023/10/22 05:47:18;;;;;;;8.73;2.72;;;;;;;4.28;66.95;100122.97;5065095;28;20044;-47
2023/10/22 05:49:44;;;;;;;5.15;2.30;;;;;;;4.33;66.90;100113.53;5064538;28;20093;-49
2023/10/22 05:52:10;;;;;;;5.72;2.90;;;;;;;4.41;66.81;100117.78;5048881;28;20055;-48
2023/10/22 05:54:36;;;;;;;5.55;2.88;;;;;;;4.25;66.51;100098.94;5065164;28;20524;-46
2023/10/22 05:57:02;;;;;;;5.97;2.53;;;;;;;4.34;66.33;100122.97;5065524;28;20796;-47
2023/10/22 05:59:28;;;;;;;4.93;2.53;;;;;;;4.34;66.70;100102.38;5063698;28;20150;-44
2023/10/22 06:01:55;;;;;;;5.15;2.75;;;;;;;4.37;66.82;100103.22;5066444;28;20044;-43
2023/10/22 06:04:21;;;;;;;6.78;2.75;;;;;;;4.41;67.01;100101.47;5062916;28;20032;-45
2023/10/22 06:06:46;;;;;;;5.93;2.70;;;;;;;4.39;67.44;100106.66;5064937;28;20054;-45
2023/10/22 06:09:12;;;;;;;5.55;2.42;;;;;;;4.38;67.17;100101.50;5065823;28;20037;-47
2023/10/22 06:11:39;;;;;;;4.57;2.75;;;;;;;4.30;67.59;100091.22;5069161;28;20139;-46
2023/10/22 06:14:05;;;;;;;4.85;2.65;;;;;;;4.06;66.96;100056.13;5069220;28;20044;-52
2023/10/22 06:16:31;;;;;;;7.35;2.15;;;;;;;4.21;67.75;100109.25;5069994;28;20052;-47
2023/10/22 06:18:57;;;;;;;9.60;3.17;;;;;;;4.08;67.87;100110.97;5067211;28;20120;-45
2023/10/22 06:21:23;;;;;;;6.90;2.95;;;;;;;4.09;68.56;100112.69;5070769;28;20044;-49
2023/10/22 06:23:50;;;;;;;4.15;2.67;;;;;;;4.04;68.34;100119.56;5052774;28;20575;-46
2023/10/22 06:26:16;;;;;;;5.43;3.00;;;;;;;4.09;68.71;100135.84;5052341;28;20136;-48
2023/10/22 06:28:43;;;;;;;8.07;3.72;;;;;;;4.06;68.26;100120.44;5070710;28;20036;-47
2023/10/22 06:31:11;;;;;;;8.95;3.03;;;;;;;4.11;68.44;100129.00;5070417;28;20048;-49
2023/10/22 06:33:38;;;;;;;7.53;4.05;;;;;;;4.11;69.00;100116.13;5067017;28;20052;-45
2023/10/22 06:36:21;;;;;;;5.82;3.10;;;;;;;4.25;69.33;100103.22;5049923;28;20044;-47
2023/10/22 06:38:48;;;;;;;7.60;3.25;;;;;;;4.28;69.56;100104.97;5048209;28;20039;-48
2023/10/22 06:41:20;;;;;;;7.10;3.88;;;;;;;4.41;69.05;100088.59;5070502;28;20040;-48
2023/10/22 06:43:47;;;;;;;7.35;3.80;;;;;;;4.57;69.25;100105.72;5068539;28;20074;-47
2023/10/22 06:46:13;;;;;;;8.90;4.18;;;;;;;4.58;69.12;100100.56;5068048;28;20051;-48
2023/10/22 06:48:39;;;;;;;9.23;4.20;;;;;;;4.59;68.64;100098.84;5063303;28;20067;-48
2023/10/22 06:51:10;;;;;;;8.45;3.45;;;;;;;4.41;68.79;100098.91;5069734;28;20040;-47
2023/10/22 06:53:37;;;;;;;8.10;3.45;;;;;;;4.34;69.35;100098.09;5069049;28;20566;-45
2023/10/22 06:56:04;;;;;;;6.78;3.95;;;;;;;4.55;69.14;100121.16;5057547;28;20041;-45
2023/10/22 06:58:31;;;;;;;10.48;4.80;;;;;;;4.39;69.22;100093.78;5068734;28;20470;-46
2023/10/22 07:01:10;;;;;;;9.73;4.10;;;;;;;4.62;69.50;100111.72;5070136;28;20432;-46
2023/10/22 07:03:46;;;;;;;10.52;5.18;;;;;;;4.88;69.33;100102.16;5049493;28;20036;-47
2023/10/22 07:06:12;;;;;;;12.68;4.80;;;;;;;4.78;69.53;100118.53;5067250;28;20033;-45
2023/10/22 07:08:39;;;;;;;11.88;5.13;;;;;;;4.55;70.49;100097.16;5068855;28;20048;-45
2023/10/22 07:11:05;;;;;;;12.32;5.55;;;;;;;4.71;70.65;100103.13;5050267;28;20543;-46
2023/10/22 07:13:31;;;;;;;11.15;5.57;;;;;;;4.73;70.91;100106.53;5049355;28;20084;-44
2023/10/22 07:15:57;;;;;;;11.07;5.40;;;;;;;4.69;70.43;100074.78;5067334;28;20535;-49
2023/10/22 07:18:23;;;;;;;11.93;5.15;;;;;;;4.77;70.68;100098.78;5066655;28;20040;-48
2023/10/22 07:20:49;;;;;;;13.20;5.47;;;;;;;4.77;70.37;100105.63;5066622;28;20048;-46
2023/10/22 07:23:15;;;;;;;12.25;5.93;;;;;;;4.80;70.77;100109.06;5036219;28;20041;-43
2023/10/22 07:25:42;;;;;;;11.52;5.85;;;;;;;4.70;71.08;100097.09;5046947;28;20055;-50
2023/10/22 07:28:08;;;;;;;12.65;5.95;;;;;;;4.33;70.92;100038.88;5068598;28;20040;-48
2023/10/22 07:30:35;;;;;;;15.35;7.35;;;;;;;4.64;71.44;100097.13;5052044;28;20600;-49
2023/10/22 07:33:00;;;;;;;15.77;7.50;;;;;;;4.48;71.47;100057.69;5065541;28;20068;-47
2023/10/22 07:35:27;;;;;;;17.80;6.80;;;;;;;4.81;71.03;100089.34;5067250;28;20500;-46
2023/10/22 07:37:52;;;;;;;16.98;6.90;;;;;;;4.80;70.91;100075.59;5068167;28;20047;-47
2023/10/22 07:40:18;;;;;;;15.63;6.70;;;;;;;4.95;71.28;100078.09;5066407;28;20135;-47
2023/10/22 07:42:45;;;;;;;16.33;6.70;;;;;;;4.98;70.75;100079.78;5068084;28;20082;-47
2023/10/22 07:45:11;;;;;;;13.98;5.63;;;;;;;4.80;70.85;100060.13;5038771;28;20048;-44
2023/10/22 07:47:38;;;;;;;15.40;6.30;;;;;;;4.79;70.59;100052.41;5066971;28;20044;-47
2023/10/22 07:50:05;;;;;;;16.40;7.00;;;;;;;4.77;70.72;100036.09;5084098;28;20507;-45
2023/10/22 07:52:32;;;;;;;16.27;6.82;;;;;;;4.89;71.35;100052.34;5048896;28;20150;-47
2023/10/22 07:54:58;;;;;;;13.57;6.20;;;;;;;4.89;71.29;100044.63;5083259;28;20055;-45
2023/10/22 07:57:27;;;;;;;17.30;7.40;;;;;;;4.61;70.59;99999.25;5058367;28;20048;-44
2023/10/22 07:59:55;;;;;;;16.75;6.65;;;;;;;4.96;70.57;100046.31;5046063;28;20051;-46
2023/10/22 08:02:21;;;;;;;14.05;7.50;;;;;;;5.05;70.24;100035.06;5019285;28;1258476;-46
2023/10/22 08:04:47;;;;;;;18.38;6.80;;;;;;;5.02;70.61;100035.13;5065431;28;20036;-48
2023/10/22 08:07:13;;;;;;;17.02;7.20;;;;;;;5.15;70.79;100034.16;5065931;28;20076;-45
2023/10/22 08:09:39;;;;;;;19.05;8.73;;;;;;;5.19;70.29;100024.66;5037397;28;20037;-44
2023/10/22 08:12:05;;;;;;;16.58;7.10;;;;;;;5.20;70.17;100032.41;5065404;28;20538;-47
2023/10/22 08:14:31;;;;;;;18.80;7.90;;;;;;;5.09;69.84;100014.44;5049903;28;20739;-47
2023/10/22 08:16:58;;;;;;;20.63;9.68;;;;;;;5.08;70.47;100004.13;5059279;28;20102;-49
2023/10/22 08:19:24;;;;;;;26.27;10.90;;;;;;;5.18;69.68;99994.63;5065300;28;20506;-46
2023/10/22 08:21:50;;;;;;;25.27;11.63;;;;;;;5.22;69.59;99967.97;5062821;28;20058;-46
2023/10/22 08:24:16;;;;;;;25.25;11.57;;;;;;;5.45;69.51;99990.09;5063143;28;20483;-46
2023/10/22 08:26:42;;;;;;;23.75;12.00;;;;;;;5.55;69.34;99960.75;5067796;28;20131;-43
2023/10/22 08:29:08;;;;;;;30.00;12.63;;;;;;;5.88;68.44;99994.88;5068108;28;20044;-48
2023/10/22 08:31:34;;;;;;;31.73;13.30;;;;;;;5.88;68.54;99977.66;5063516;28;20041;-43
2023/10/22 08:34:01;;;;;;;28.30;12.13;;;;;;;6.11;68.02;99976.56;5045386;28;20040;-47
2023/10/22 08:36:27;;;;;;;29.33;13.30;;;;;;;6.30;67.55;99968.56;5079746;28;20068;-59
2023/10/22 08:38:53;;;;;;;27.40;13.55;;;;;;;6.30;66.73;99916.94;5046692;28;20134;-52
2023/10/22 08:41:23;;;;;;;26.45;13.18;;;;;;;6.81;66.21;99973.91;5064180;28;20073;-56
2023/10/22 08:43:49;;;;;;;30.75;13.13;;;;;;;6.82;65.16;99967.84;5065525;28;20130;-56
2023/10/22 08:46:16;;;;;;;24.25;12.30;;;;;;;6.84;64.65;99957.50;5064163;28;20174;-55
2023/10/22 08:48:42;;;;;;;25.55;13.05;;;;;;;6.76;64.63;99955.88;5062870;28;20045;-56
2023/10/22 08:51:08;;;;;;;26.05;12.75;;;;;;;6.84;64.34;99942.00;5081952;28;20051;-54
2023/10/22 08:53:34;;;;;;;25.55;12.52;;;;;;;7.14;63.86;99972.53;5058914;28;20043;-53
2023/10/22 08:56:01;;;;;;;27.55;12.38;;;;;;;6.91;63.74;99941.03;5064215;28;20121;-54
2023/10/22 08:58:27;;;;;;;26.35;12.02;;;;;;;7.00;62.99;99959.84;5049366;28;20105;-51
2023/10/22 09:00:54;;;;;;;23.95;12.02;;;;;;;7.06;62.60;99951.13;5061245;28;20485;-58
2023/10/22 09:03:22;;;;;;;20.63;10.57;;;;;;;7.10;62.36;99955.38;5032626;28;20389;-59
2023/10/22 09:05:48;;;;;;;23.10;11.40;;;;;;;7.08;62.12;99957.97;5016987;28;20147;-62
2023/10/22 09:08:15;;;;;;;30.60;12.00;;;;;;;7.09;62.35;99943.31;5037247;28;20040;-61
2023/10/22 09:10:41;;;;;;;24.55;9.82;;;;;;;6.88;62.15;99926.41;5021953;28;20508;-61
2023/10/22 09:13:07;;;;;;;19.98;10.73;;;;;;;6.76;62.38;99931.75;5047550;28;20041;-62
2023/10/22 09:15:41;;;;;;;24.65;11.23;;;;;;;6.74;62.66;99933.53;5065945;28;20052;-60
2023/10/22 09:18:07;;;;;;;20.50;10.27;;;;;;;6.62;62.97;99925.97;5029249;28;20536;-58
2023/10/22 09:20:37;;;;;;;18.48;9.73;;;;;;;6.72;62.75;99932.69;5045656;28;20059;-61
2023/10/22 09:23:21;;;;;;;23.00;9.90;;;;;;;6.36;63.03;99897.91;5030561;28;20060;-62
2023/10/22 09:25:52;;;;;;;19.95;10.18;;;;;;;6.23;63.40;99889.47;5055628;28;20040;-61
2023/10/22 09:28:20;;;;;;;17.05;9.02;;;;;;;6.21;63.39;99892.97;5046628;28;20043;-61
2023/10/22 09:30:48;;;;;;;15.23;9.43;;;;;;;6.25;64.04;99908.38;5049496;28;20048;-59
2023/10/22 09:33:20;;;;;;;19.90;10.02;;;;;;;6.21;64.01;99911.03;5062442;28;20459;-57
2023/10/22 09:35:59;;;;;;;18.30;9.13;;;;;;;6.41;63.78;99909.03;5048929;28;20041;-61
2023/10/22 09:38:42;;;;;;;19.63;9.73;;;;;;;6.42;64.02;99909.91;5063877;28;20500;-58
2023/10/22 09:41:12;;;;;;;15.75;8.75;;;;;;;6.26;63.54;99915.28;5047030;28;20779;-56
2023/10/22 09:43:38;;;;;;;17.00;8.60;;;;;;;6.30;64.02;99895.41;5060339;28;20090;-57
2023/10/22 09:46:06;;;;;;;16.60;9.02;;;;;;;6.36;63.78;99890.16;5032666;28;20044;-58
2023/10/22 09:48:34;;;;;;;17.95;7.97;;;;;;;6.40;63.61;99889.25;5064828;28;20038;-55
2023/10/22 09:51:03;;;;;;;16.63;8.75;;;;;;;6.39;63.54;99884.94;5034426;28;20054;-56
2023/10/22 09:53:30;;;;;;;15.38;7.63;;;;;;;6.37;63.78;99881.56;5029052;28;20045;-60
2023/10/22 09:55:57;;;;;;;16.92;8.88;;;;;;;6.19;63.72;99890.41;5048726;28;20040;-59
2023/10/22 09:58:29;;;;;;;22.67;8.65;;;;;;;6.33;63.77;99885.06;5043596;28;20044;-59
2023/10/22 10:00:56;;;;;;;15.75;8.45;;;;;;;6.26;63.70;99881.72;5063878;28;20102;-59
2023/10/22 10:03:23;;;;;;;16.25;7.95;;;;;;;6.03;64.25;99880.28;5031136;28;20806;-60
2023/10/22 10:05:51;;;;;;;17.10;8.52;;;;;;;5.77;64.49;99842.75;5039865;28;20071;-62
2023/10/22 10:08:17;;;;;;;16.10;8.50;;;;;;;5.89;65.38;99859.84;5040118;28;20041;-60
2023/10/22 10:10:45;;;;;;;16.45;8.90;;;;;;;5.95;65.18;99865.78;5063191;28;20036;-62
2023/10/22 10:13:11;;;;;;;16.55;7.95;;;;;;;5.90;65.30;99872.72;5031432;28;20577;-61
2023/10/22 10:15:38;;;;;;;17.27;8.88;;;;;;;5.72;65.87;99875.47;5040073;28;20047;-55
2023/10/22 10:18:07;;;;;;;15.90;8.30;;;;;;;5.71;65.76;99868.59;5037349;28;20445;-53
2023/10/22 10:20:35;;;;;;;15.48;8.07;;;;;;;5.56;65.57;99843.00;5032509;28;20036;-58
2023/10/22 10:23:08;;;;;;;18.98;8.38;;;;;;;5.79;65.80;99877.13;5031695;28;20044;-56
2023/10/22 10:25:36;;;;;;;16.10;7.88;;;;;;;5.80;65.84;99876.25;5027115;28;20044;-59
2023/10/22 10:28:06;;;;;;;13.45;7.75;;;;;;;5.94;65.71;99866.63;5045479;28;20052;-65
2023/10/22 10:30:33;;;;;;;15.02;8.40;;;;;;;5.89;65.28;99865.84;5047409;28;20048;-60
2023/10/22 10:32:59;;;;;;;13.55;7.35;;;;;;;5.70;65.55;99859.19;5028330;28;20509;-58
2023/10/22 10:35:27;;;;;;;16.95;7.90;;;;;;;5.49;66.08;99859.44;5038290;28;20088;-58
2023/10/22 10:38:15;;;;;;;15.75;6.97;;;;;;;5.41;66.54;99864.66;5064121;28;20105;-61
2023/10/22 10:40:46;;;;;;;14.43;8.18;;;;;;;5.40;66.38;99852.63;5061064;28;20071;-57
2023/10/22 10:43:12;;;;;;;13.88;7.32;;;;;;;5.49;66.72;99855.13;5046802;28;20447;-55
2023/10/22 10:45:43;;;;;;;18.08;8.48;;;;;;;5.44;66.99;99854.28;5048890;28;20040;-59
2023/10/22 10:48:41;;;;;;;17.88;8.27;;;;;;;5.62;66.97;99842.06;5049201;28;20048;-60
2023/10/22 10:51:17;;;;;;;15.80;7.80;;;;;;;5.63;66.74;99844.63;5045000;28;20595;-59
2023/10/22 10:54:07;;;;;;;18.88;8.75;;;;;;;5.50;66.30;99843.91;5064917;28;20048;-61
2023/10/22 10:56:46;;;;;;;;;;;;;;;5.47;67.00;99840.53;5068289;28;20067;-60
2023/10/22 10:59:23;;;;;;;15.53;8.17;;;;;;;5.41;66.74;99840.59;5070164;28;19940;-61
2023/10/22 11:02:04;;;;;;;14.63;7.90;;;;;;;5.52;67.48;99836.16;5065348;28;20102;-60
2023/10/22 11:04:30;;;;;;;15.52;8.20;;;;;;;5.73;66.91;99830.75;5081067;28;20062;-61
2023/10/22 11:06:57;;;;;;;15.02;8.40;;;;;;;5.67;66.78;99825.66;5067526;28;20029;-59
2023/10/22 11:09:23;;;;;;;20.38;9.18;;;;;;;5.33;66.92;99783.13;5066507;28;20191;-62
2023/10/22 11:12:00;;;;;;;15.50;8.27;;;;;;;5.52;67.51;99816.41;5061757;28;20513;-63
2023/10/22 11:14:26;;;;;;;15.27;8.50;;;;;;;5.50;67.05;99812.97;5066598;28;20139;-61
2023/10/22 11:16:57;;;;;;;20.13;8.45;;;;;;;5.41;67.72;99812.22;5063592;28;20093;-56
2023/10/22 11:19:24;;;;;;;15.20;9.00;;;;;;;5.38;67.65;99820.88;5069257;28;20047;-47
2023/10/22 11:21:51;;;;;;;16.48;8.80;;;;;;;5.32;67.95;99815.78;5062177;28;20444;-65
2023/10/22 11:28:54;;;;;;;15.93;9.38;;;;;;;5.42;67.88;99808.78;5062116;28;20105;-51
2023/10/22 11:31:24;;;;;;;16.85;9.27;;;;;;;5.41;68.09;99813.09;5064602;28;20055;-53
2023/10/22 11:33:50;;;;;;;17.40;10.07;;;;;;;5.30;68.25;99803.75;5065315;28;20043;-52
2023/10/22 11:36:17;;;;;;;18.48;9.88;;;;;;;5.27;67.92;99802.09;5068700;28;20036;-59